createdAt,value
2023-06-11T00:01:54.281Z,8.40
2023-06-11T00:04:25.956Z,9.57
2023-06-11T00:07:00.967Z,8.90
2023-06-11T00:09:28.016Z,9.40
2023-06-11T00:11:55.252Z,9.57
2023-06-11T00:14:23.786Z,9.55
2023-06-11T00:16:51.726Z,10.23
2023-06-11T00:19:21.684Z,10.02
2023-06-11T00:21:50.579Z,9.70
2023-06-11T00:24:19.005Z,10.45
2023-06-11T00:26:46.028Z,10.15
2023-06-11T00:29:12.868Z,10.32
2023-06-11T00:31:39.756Z,9.85
2023-06-11T00:34:06.929Z,9.85
2023-06-11T00:36:34.563Z,9.77
2023-06-11T00:39:01.463Z,8.93
2023-06-11T00:41:31.244Z,9.35
2023-06-11T00:46:25.845Z,9.55
2023-06-11T00:48:52.676Z,8.60
2023-06-11T00:51:23.171Z,8.68
2023-06-11T00:53:50.177Z,9.98
2023-06-11T00:56:18.824Z,10.35
2023-06-11T00:58:46.973Z,9.32
2023-06-11T01:01:18.892Z,9.27
2023-06-11T01:03:45.740Z,9.73
2023-06-11T01:06:20.807Z,10.25
2023-06-11T01:08:54.358Z,10.45
2023-06-11T01:11:24.804Z,11.25
2023-06-11T01:13:55.443Z,11.23
2023-06-11T01:16:35.768Z,10.75
2023-06-11T01:19:21.314Z,11.77
2023-06-11T01:22:00.548Z,11.75
2023-06-11T01:25:00.359Z,10.80
2023-06-11T01:27:45.269Z,10.98
2023-06-11T01:30:22.054Z,12.88
2023-06-11T01:32:57.304Z,11.10
2023-06-11T01:35:25.800Z,11.05
2023-06-11T01:37:59.571Z,12.20
2023-06-11T01:40:27.798Z,12.15
2023-06-11T01:42:56.017Z,12.40
2023-06-11T01:45:24.504Z,12.15
2023-06-11T01:47:52.712Z,12.60
2023-06-11T01:50:20.625Z,11.85
2023-06-11T01:52:48.080Z,11.93
2023-06-11T01:55:15.150Z,12.27
2023-06-11T01:57:42.541Z,12.60
2023-06-11T02:00:11.764Z,12.65
2023-06-11T02:02:45.639Z,12.40
2023-06-11T02:05:13.056Z,12.50
2023-06-11T02:07:40.009Z,12.90
2023-06-11T02:10:06.974Z,12.23
2023-06-11T02:12:33.899Z,12.93
2023-06-11T02:15:00.795Z,13.18
2023-06-11T02:17:27.581Z,13.05
2023-06-11T02:19:54.957Z,12.32
2023-06-11T02:22:21.774Z,13.13
2023-06-11T02:24:48.583Z,12.75
2023-06-11T02:27:17.471Z,12.23
2023-06-11T02:29:44.236Z,13.87
2023-06-11T02:32:11.884Z,14.05
2023-06-11T02:34:38.668Z,14.23
2023-06-11T02:37:05.595Z,15.15
2023-06-11T02:39:32.408Z,14.98
2023-06-11T02:41:59.187Z,14.80
2023-06-11T02:44:26.075Z,15.52
2023-06-11T02:46:52.881Z,15.38
2023-06-11T02:49:19.734Z,15.73
2023-06-11T02:51:46.435Z,15.88
2023-06-11T02:54:13.164Z,15.60
2023-06-11T02:56:39.869Z,16.90
2023-06-11T02:59:06.775Z,18.90
2023-06-11T03:01:34.569Z,17.40
2023-06-11T03:04:01.480Z,15.80
2023-06-11T03:06:28.216Z,16.25
2023-06-11T03:08:54.969Z,16.23
2023-06-11T03:11:21.728Z,15.80
2023-06-11T03:13:48.458Z,16.05
2023-06-11T03:16:15.286Z,16.65
2023-06-11T03:18:43.875Z,15.75
2023-06-11T03:21:12.130Z,15.68
2023-06-11T03:23:39.112Z,15.35
2023-06-11T03:26:06.169Z,16.02
2023-06-11T03:28:32.918Z,14.20
2023-06-11T03:30:59.952Z,15.70
2023-06-11T03:33:26.800Z,16.05
2023-06-11T03:35:54.198Z,16.52
2023-06-11T03:38:20.988Z,18.33
2023-06-11T03:40:47.814Z,17.80
2023-06-11T03:43:15.034Z,18.30
2023-06-11T03:45:41.775Z,17.38
2023-06-11T03:48:09.495Z,15.90
2023-06-11T03:50:36.360Z,15.30
2023-06-11T03:53:03.262Z,13.52
2023-06-11T03:55:31.151Z,14.05
2023-06-11T03:57:58.139Z,13.10
2023-06-11T04:00:25.122Z,12.70
2023-06-11T04:02:52.238Z,13.70
2023-06-11T04:05:19.200Z,13.52
2023-06-11T04:07:45.902Z,13.80
2023-06-11T04:10:12.737Z,13.13
2023-06-11T04:12:39.970Z,13.55
2023-06-11T04:15:08.891Z,12.65
2023-06-11T04:17:36.212Z,13.55
2023-06-11T04:20:03.946Z,12.73
2023-06-11T04:22:30.896Z,12.55
2023-06-11T04:24:57.615Z,12.25
2023-06-11T04:27:24.315Z,13.05
2023-06-11T04:29:54.202Z,14.00
2023-06-11T04:32:22.556Z,12.65
2023-06-11T04:34:49.900Z,13.38
2023-06-11T04:37:20.334Z,12.98
2023-06-11T04:39:47.080Z,11.05
2023-06-11T04:42:15.703Z,12.07
2023-06-11T04:44:42.485Z,12.10
2023-06-11T04:47:09.520Z,11.73
2023-06-11T04:49:36.338Z,12.10
2023-06-11T04:52:03.295Z,11.00
2023-06-11T04:54:30.047Z,11.32
2023-06-11T04:56:56.751Z,11.55
2023-06-11T04:59:23.519Z,11.10
2023-06-11T05:01:51.880Z,11.90
2023-06-11T05:04:18.857Z,12.57
2023-06-11T05:06:49.469Z,11.50
2023-06-11T05:09:17.332Z,11.50
2023-06-11T05:11:45.718Z,12.18
2023-06-11T05:14:13.087Z,11.80
2023-06-11T05:16:40.482Z,10.70
2023-06-11T05:19:07.609Z,11.93
2023-06-11T05:21:34.488Z,10.32
2023-06-11T05:24:08.481Z,11.07
2023-06-11T05:26:37.049Z,11.23
2023-06-11T05:29:05.060Z,11.55
2023-06-11T05:31:32.664Z,11.52
2023-06-11T05:33:59.528Z,10.90
2023-06-11T05:36:27.532Z,11.50
2023-06-11T05:38:55.051Z,10.85
2023-06-11T05:41:22.653Z,9.93
2023-06-11T05:43:49.462Z,10.30
2023-06-11T05:46:17.106Z,11.63
2023-06-11T05:48:44.664Z,10.95
2023-06-11T05:51:12.792Z,10.57
2023-06-11T05:53:41.969Z,11.50
2023-06-11T05:56:08.765Z,9.63
2023-06-11T05:58:35.605Z,9.88
2023-06-11T06:01:03.945Z,10.20
2023-06-11T06:03:32.101Z,9.70
2023-06-11T06:06:02.471Z,10.45
2023-06-11T06:08:30.905Z,10.50
2023-06-11T06:10:58.469Z,11.05
2023-06-11T06:13:26.231Z,10.38
2023-06-11T06:15:54.250Z,10.82
2023-06-11T06:18:21.784Z,10.63
2023-06-11T06:20:49.690Z,10.10
2023-06-11T06:23:16.535Z,9.68
2023-06-11T06:25:44.023Z,9.27
2023-06-11T06:28:10.938Z,9.07
2023-06-11T06:30:40.308Z,7.40
2023-06-11T06:33:07.094Z,8.27
2023-06-11T06:35:34.020Z,8.52
2023-06-11T06:38:02.221Z,7.88
2023-06-11T06:40:29.238Z,7.95
2023-06-11T06:42:56.229Z,7.80
2023-06-11T06:45:23.218Z,6.88
2023-06-11T06:47:50.109Z,7.28
2023-06-11T06:50:17.114Z,7.15
2023-06-11T06:52:43.973Z,6.40
2023-06-11T06:55:10.994Z,7.57
2023-06-11T06:57:37.973Z,7.10
2023-06-11T07:00:07.145Z,7.10
2023-06-11T07:02:33.925Z,7.18
2023-06-11T07:05:01.859Z,7.70
2023-06-11T07:07:28.717Z,7.00
2023-06-11T07:09:57.406Z,6.43
2023-06-11T07:14:55.312Z,6.90
2023-06-11T07:17:24.064Z,6.77
2023-06-11T07:19:51.488Z,6.53
2023-06-11T07:22:18.858Z,6.25
2023-06-11T07:24:48.475Z,6.20
2023-06-11T07:27:16.236Z,6.45
2023-06-11T07:29:43.009Z,6.78
2023-06-11T07:32:11.960Z,5.75
2023-06-11T07:34:38.716Z,5.22
2023-06-11T07:37:06.802Z,5.53
2023-06-11T07:39:33.503Z,5.90
2023-06-11T07:42:00.279Z,5.68
2023-06-11T07:44:28.311Z,6.43
2023-06-11T07:46:55.059Z,6.57
2023-06-11T07:49:22.798Z,6.43
2023-06-11T07:51:49.714Z,6.38
2023-06-11T07:54:16.900Z,6.40
2023-06-11T07:56:43.745Z,6.82
2023-06-11T07:59:10.497Z,6.40
2023-06-11T08:01:38.742Z,6.07
2023-06-11T08:04:05.970Z,6.53
2023-06-11T08:06:32.942Z,6.35
2023-06-11T08:08:59.710Z,6.53
2023-06-11T08:11:28.501Z,6.22
2023-06-11T08:13:55.632Z,6.70
2023-06-11T08:16:22.583Z,6.60
2023-06-11T08:18:49.401Z,6.63
2023-06-11T08:21:16.120Z,6.70
2023-06-11T08:23:44.025Z,6.47
2023-06-11T08:26:10.765Z,6.47
2023-06-11T08:28:37.877Z,6.13
2023-06-11T08:31:04.805Z,6.85
2023-06-11T08:33:31.642Z,7.00
2023-06-11T08:35:58.547Z,5.72
2023-06-11T08:38:29.236Z,5.45
2023-06-11T08:40:56.112Z,6.00
2023-06-11T08:43:25.437Z,6.25
2023-06-11T08:45:52.673Z,5.97
2023-06-11T08:48:30.494Z,6.25
2023-06-11T08:51:04.951Z,5.70
2023-06-11T08:53:33.598Z,6.10
2023-06-11T08:56:00.349Z,5.53
2023-06-11T08:58:29.233Z,5.85
2023-06-11T09:03:22.695Z,5.47
2023-06-11T09:05:52.484Z,5.88
2023-06-11T09:08:19.369Z,5.32
2023-06-11T09:10:51.210Z,4.95
2023-06-11T09:13:28.703Z,5.85
2023-06-11T09:16:00.475Z,5.20
2023-06-11T09:18:28.414Z,5.90
2023-06-11T09:21:01.567Z,5.30
2023-06-11T09:23:31.937Z,5.68
2023-06-11T09:26:03.236Z,5.82
2023-06-11T09:28:35.220Z,6.15
2023-06-11T09:31:04.271Z,5.25
2023-06-11T09:33:34.365Z,5.55
2023-06-11T09:36:03.160Z,5.50
2023-06-11T09:38:35.208Z,5.50
2023-06-11T09:41:06.783Z,5.82
2023-06-11T09:43:37.110Z,5.68
2023-06-11T09:46:04.070Z,5.78
2023-06-11T09:48:31.232Z,4.93
2023-06-11T09:51:02.824Z,5.00
2023-06-11T09:53:33.187Z,5.47
2023-06-11T09:56:11.084Z,5.63
2023-06-11T09:58:42.438Z,5.72
2023-06-11T10:01:10.716Z,5.43
2023-06-11T10:03:37.682Z,5.35
2023-06-11T10:06:16.783Z,4.93
2023-06-11T10:08:46.846Z,5.70
2023-06-11T10:11:13.835Z,5.22
2023-06-11T10:13:41.600Z,4.70
2023-06-11T10:16:10.216Z,5.90
2023-06-11T10:18:39.900Z,5.00
2023-06-11T10:21:06.767Z,5.18
2023-06-11T10:23:38.760Z,5.57
2023-06-11T10:26:07.860Z,5.88
2023-06-11T10:28:49.754Z,5.25
2023-06-11T10:31:30.882Z,5.18
2023-06-11T10:34:05.460Z,4.57
2023-06-11T10:36:38.544Z,5.03
2023-06-11T10:39:13.693Z,5.47
2023-06-11T10:41:41.909Z,5.82
2023-06-11T10:44:11.057Z,5.32
2023-06-11T10:46:51.213Z,5.00
2023-06-11T10:49:20.450Z,5.13
2023-06-11T10:51:53.786Z,5.20
2023-06-11T10:54:28.072Z,5.68
2023-06-11T10:57:00.223Z,5.40
2023-06-11T10:59:27.266Z,5.50
2023-06-11T11:01:54.646Z,4.70
2023-06-11T11:04:24.645Z,5.65
2023-06-11T11:07:04.812Z,5.05
2023-06-11T11:09:32.582Z,4.75
2023-06-11T11:12:00.059Z,4.88
2023-06-11T11:14:29.258Z,5.53
2023-06-11T11:16:57.080Z,4.80
2023-06-11T11:19:27.094Z,4.90
2023-06-11T11:21:54.246Z,4.95
2023-06-11T11:24:21.997Z,5.25
2023-06-11T11:26:49.160Z,4.50
2023-06-11T11:29:16.095Z,4.55
2023-06-11T11:31:46.462Z,4.95
2023-06-11T11:34:13.954Z,4.80
2023-06-11T11:36:41.936Z,5.00
2023-06-11T11:39:14.472Z,5.40
2023-06-11T11:41:52.358Z,5.53
2023-06-11T11:44:19.363Z,5.35
2023-06-11T11:46:46.578Z,5.25
2023-06-11T11:49:14.535Z,4.68
2023-06-11T11:51:43.365Z,5.38
2023-06-11T11:54:16.489Z,4.68
2023-06-11T11:56:44.077Z,4.18
2023-06-11T11:59:21.220Z,4.72
2023-06-11T12:02:02.490Z,4.72
2023-06-11T12:04:35.186Z,5.22
2023-06-11T12:07:12.284Z,4.38
2023-06-11T12:09:40.680Z,4.25
2023-06-11T12:12:08.862Z,4.50
2023-06-11T12:14:36.235Z,5.05
2023-06-11T12:17:05.228Z,5.03
2023-06-11T12:19:32.913Z,5.10
2023-06-11T12:21:59.755Z,4.82
2023-06-11T12:24:26.706Z,5.03
2023-06-11T12:26:53.967Z,5.28
2023-06-11T12:29:20.795Z,4.75
2023-06-11T12:31:50.176Z,5.03
2023-06-11T12:36:44.878Z,5.30
2023-06-11T12:39:12.245Z,4.72
2023-06-11T12:41:39.046Z,4.45
2023-06-11T12:44:06.001Z,4.40
2023-06-11T12:46:32.978Z,3.60
2023-06-11T12:48:59.761Z,4.45
2023-06-11T12:51:26.538Z,4.47
2023-06-11T12:53:54.055Z,4.68
2023-06-11T12:56:24.268Z,4.85
2023-06-11T12:58:51.754Z,4.30
2023-06-11T13:01:18.970Z,4.30
2023-06-11T13:03:45.930Z,4.78
2023-06-11T13:06:12.805Z,4.22
2023-06-11T13:08:40.603Z,4.75
2023-06-11T13:11:10.928Z,4.32
2023-06-11T13:13:37.749Z,4.68
2023-06-11T13:16:04.753Z,3.85
2023-06-11T13:18:31.792Z,4.63
2023-06-11T13:21:00.777Z,4.53
2023-06-11T13:23:32.532Z,4.47
2023-06-11T13:26:01.400Z,4.28
2023-06-11T13:28:28.591Z,4.30
2023-06-11T13:30:57.227Z,4.80
2023-06-11T13:33:31.899Z,4.80
2023-06-11T13:35:59.100Z,4.80
2023-06-11T13:38:26.475Z,4.72
2023-06-11T13:40:56.046Z,4.45
2023-06-11T13:43:22.958Z,3.85
2023-06-11T13:45:51.066Z,4.50
2023-06-11T13:48:19.660Z,4.50
2023-06-11T13:50:48.654Z,4.27
2023-06-11T13:53:22.017Z,4.85
2023-06-11T13:55:49.168Z,4.13
2023-06-11T13:58:17.358Z,4.10
2023-06-11T14:00:45.152Z,4.68
2023-06-11T14:03:14.325Z,4.93
2023-06-11T14:05:41.227Z,4.75
2023-06-11T14:08:09.373Z,3.90
2023-06-11T14:10:36.123Z,3.95
2023-06-11T14:13:04.163Z,4.32
2023-06-11T14:15:31.351Z,3.88
2023-06-11T14:17:59.528Z,4.45
2023-06-11T14:20:26.441Z,4.25
2023-06-11T14:22:53.247Z,3.72
2023-06-11T14:25:20.051Z,4.10
2023-06-11T14:27:46.845Z,4.22
2023-06-11T14:30:14.561Z,4.07
2023-06-11T14:32:41.606Z,4.20
2023-06-11T14:35:08.556Z,4.47
2023-06-11T14:37:35.333Z,4.10
2023-06-11T14:40:02.145Z,4.40
2023-06-11T14:42:30.467Z,3.92
2023-06-11T14:44:57.356Z,4.85
2023-06-11T14:47:25.490Z,4.43
2023-06-11T14:49:52.872Z,3.65
2023-06-11T14:52:20.232Z,4.22
2023-06-11T14:54:47.664Z,4.28
2023-06-11T14:57:19.804Z,3.60
2023-06-11T14:59:46.829Z,4.22
2023-06-11T15:02:17.182Z,4.25
2023-06-11T15:04:45.110Z,4.93
2023-06-11T15:09:45.976Z,4.88
2023-06-11T15:12:13.999Z,4.07
2023-06-11T15:14:41.482Z,4.32
2023-06-11T15:17:08.276Z,3.95
2023-06-11T15:19:36.046Z,4.20
2023-06-11T15:22:06.714Z,4.70
2023-06-11T15:24:33.551Z,4.07
2023-06-11T15:27:00.412Z,4.15
2023-06-11T15:29:27.440Z,3.50
2023-06-11T15:32:01.807Z,3.70
2023-06-11T15:34:28.642Z,3.83
2023-06-11T15:36:55.345Z,3.67
2023-06-11T15:39:22.126Z,3.92
2023-06-11T15:41:48.941Z,4.07
2023-06-11T15:44:15.741Z,4.15
2023-06-11T15:46:43.457Z,4.25
2023-06-11T15:49:10.374Z,4.45
2023-06-11T15:51:39.610Z,4.85
2023-06-11T15:56:35.409Z,4.07
2023-06-11T15:59:02.141Z,4.65
2023-06-11T16:01:31.370Z,4.30
2023-06-11T16:03:59.717Z,4.50
2023-06-11T16:06:26.581Z,4.05
2023-06-11T16:08:54.462Z,4.13
2023-06-11T16:11:21.291Z,3.88
2023-06-11T16:13:48.034Z,4.97
2023-06-11T16:16:14.805Z,4.05
2023-06-11T16:18:41.825Z,4.05
2023-06-11T16:21:08.571Z,4.13
2023-06-11T16:23:35.401Z,3.97
2023-06-11T16:26:03.826Z,3.88
2023-06-11T16:28:30.611Z,4.35
2023-06-11T16:30:58.291Z,4.32
2023-06-11T16:33:25.341Z,4.40
2023-06-11T16:35:52.712Z,4.45
2023-06-11T16:38:20.579Z,4.30
2023-06-11T16:40:47.398Z,4.00
2023-06-11T16:43:14.198Z,4.55
2023-06-11T16:45:41.136Z,4.50
2023-06-11T16:48:08.426Z,4.25
2023-06-11T16:50:36.155Z,4.50
2023-06-11T16:53:02.952Z,4.43
2023-06-11T16:55:30.212Z,4.47
2023-06-11T16:57:58.405Z,3.80
2023-06-11T17:00:25.358Z,3.78
2023-06-11T17:02:56.083Z,3.85
2023-06-11T17:05:23.325Z,4.40
2023-06-11T17:08:00.581Z,4.63
2023-06-11T17:10:30.159Z,4.10
2023-06-11T17:12:57.593Z,4.18
2023-06-11T17:15:25.613Z,4.05
2023-06-11T17:17:52.479Z,4.22
2023-06-11T17:20:19.554Z,4.15
2023-06-11T17:22:48.676Z,4.38
2023-06-11T17:25:16.886Z,4.43
2023-06-11T17:27:46.860Z,4.13
2023-06-11T17:30:13.997Z,4.05
2023-06-11T17:32:41.872Z,4.22
2023-06-11T17:35:09.155Z,4.20
2023-06-11T17:37:37.152Z,3.70
2023-06-11T17:40:05.817Z,4.65
2023-06-11T17:42:32.673Z,4.03
2023-06-11T17:45:00.574Z,3.72
2023-06-11T17:47:27.445Z,3.85
2023-06-11T17:49:54.818Z,4.45
2023-06-11T17:52:21.754Z,3.70
2023-06-11T17:54:48.549Z,4.18
2023-06-11T17:57:16.490Z,4.10
2023-06-11T17:59:46.300Z,3.75
2023-06-11T18:02:15.439Z,4.18
2023-06-11T18:04:42.171Z,3.83
2023-06-11T18:07:08.933Z,3.97
2023-06-11T18:09:39.223Z,4.00
2023-06-11T18:12:07.032Z,4.18
2023-06-11T18:14:34.720Z,4.13
2023-06-11T18:17:01.488Z,4.20
2023-06-11T18:19:29.152Z,4.07
2023-06-11T18:21:56.074Z,3.90
2023-06-11T18:24:23.619Z,3.92
2023-06-11T18:26:51.101Z,3.83
2023-06-11T18:29:18.010Z,3.90
2023-06-11T18:31:44.807Z,4.22
2023-06-11T18:34:11.600Z,3.85
2023-06-11T18:36:39.477Z,4.00
2023-06-11T18:39:06.471Z,5.07
2023-06-11T18:41:33.273Z,4.03
2023-06-11T18:44:00.003Z,4.32
2023-06-11T18:46:29.281Z,4.47
2023-06-11T18:48:56.294Z,4.18
2023-06-11T18:51:23.068Z,4.13
2023-06-11T18:53:49.821Z,4.03
2023-06-11T18:56:16.574Z,4.22
2023-06-11T18:58:43.354Z,4.72
2023-06-11T19:01:10.495Z,4.63
2023-06-11T19:03:40.570Z,4.13
2023-06-11T19:06:08.856Z,4.18
2023-06-11T19:08:35.759Z,4.07
2023-06-11T19:11:03.390Z,4.18
2023-06-11T19:13:33.195Z,4.13
2023-06-11T19:16:00.588Z,4.28
2023-06-11T19:18:27.680Z,3.88
2023-06-11T19:20:54.845Z,4.55
2023-06-11T19:23:21.758Z,5.60
2023-06-11T19:25:48.891Z,4.03
2023-06-11T19:28:17.392Z,4.38
2023-06-11T19:30:44.275Z,4.43
2023-06-11T19:33:11.632Z,3.85
2023-06-11T19:35:39.092Z,4.75
2023-06-11T19:38:05.998Z,4.18
2023-06-11T19:40:32.953Z,4.68
2023-06-11T19:42:59.760Z,4.80
2023-06-11T19:45:27.712Z,4.93
2023-06-11T19:47:55.684Z,4.10
2023-06-11T19:50:27.365Z,4.55
2023-06-11T19:52:54.761Z,4.60
2023-06-11T19:55:21.774Z,4.35
2023-06-11T19:57:48.589Z,4.65
2023-06-11T20:00:16.439Z,5.03
2023-06-11T20:02:43.237Z,4.72
2023-06-11T20:05:10.440Z,4.50
2023-06-11T20:07:37.209Z,4.88
2023-06-11T20:10:04.303Z,4.65
2023-06-11T20:12:31.210Z,4.45
2023-06-11T20:14:58.045Z,5.00
2023-06-11T20:17:24.943Z,5.40
2023-06-11T20:19:51.766Z,4.93
2023-06-11T20:22:18.618Z,4.50
2023-06-11T20:24:47.287Z,4.90
2023-06-11T20:27:14.028Z,5.03
2023-06-11T20:29:59.598Z,4.32
2023-06-11T20:32:26.468Z,4.35
2023-06-11T20:34:53.289Z,4.53
2023-06-11T20:37:21.461Z,4.82
2023-06-11T20:39:48.255Z,4.63
2023-06-11T20:42:16.451Z,5.47
2023-06-11T20:44:43.197Z,4.05
2023-06-11T20:47:10.109Z,5.50
2023-06-11T20:49:37.872Z,5.35
2023-06-11T20:52:06.174Z,4.82
2023-06-11T20:54:33.007Z,4.72
2023-06-11T20:56:59.781Z,5.03
2023-06-11T20:59:26.564Z,5.13
2023-06-11T21:01:54.355Z,4.95
2023-06-11T21:04:21.217Z,5.50
2023-06-11T21:06:47.977Z,5.20
2023-06-11T21:09:14.695Z,4.88
2023-06-11T21:11:42.811Z,5.53
2023-06-11T21:14:14.270Z,6.45
2023-06-11T21:16:41.986Z,6.13
2023-06-11T21:19:09.234Z,5.75
2023-06-11T21:21:37.826Z,5.10
2023-06-11T21:24:05.049Z,5.28
2023-06-11T21:26:31.811Z,5.30
2023-06-11T21:29:01.237Z,4.85
2023-06-11T21:31:28.328Z,4.70
2023-06-11T21:33:55.104Z,4.85
2023-06-11T21:36:21.951Z,5.80
2023-06-11T21:38:48.732Z,5.38
2023-06-11T21:41:17.126Z,5.70
2023-06-11T21:43:43.963Z,5.38
2023-06-11T21:46:10.769Z,5.30
2023-06-11T21:48:37.545Z,5.18
2023-06-11T21:51:04.315Z,6.10
2023-06-11T21:53:31.026Z,5.50
2023-06-11T21:55:57.826Z,5.82
2023-06-11T21:58:26.264Z,5.43
2023-06-11T22:00:53.135Z,5.32
2023-06-11T22:03:20.479Z,5.68
2023-06-11T22:05:47.511Z,5.65
2023-06-11T22:08:14.987Z,5.22
2023-06-11T22:10:41.714Z,4.97
2023-06-11T22:13:08.585Z,5.13
2023-06-11T22:15:35.698Z,5.15
2023-06-11T22:18:05.351Z,4.95
2023-06-11T22:20:33.775Z,4.95
2023-06-11T22:23:01.275Z,5.80
2023-06-11T22:25:28.312Z,5.03
2023-06-11T22:27:56.280Z,4.93
2023-06-11T22:30:23.605Z,4.97
2023-06-11T22:32:51.778Z,5.15
2023-06-11T22:35:18.615Z,4.57
2023-06-11T22:37:45.405Z,4.97
2023-06-11T22:40:12.763Z,5.10
2023-06-11T22:42:39.717Z,4.95
2023-06-11T22:45:08.218Z,4.95
2023-06-11T22:47:35.104Z,5.55
2023-06-11T22:50:02.196Z,4.90
2023-06-11T22:52:32.588Z,4.85
2023-06-11T22:54:59.321Z,4.80
2023-06-11T22:57:26.150Z,5.32
2023-06-11T22:59:52.956Z,5.20
2023-06-11T23:02:20.184Z,6.25
2023-06-11T23:04:47.169Z,5.78
2023-06-11T23:07:18.398Z,5.95
2023-06-11T23:09:45.709Z,5.18
2023-06-11T23:12:15.446Z,5.45
2023-06-11T23:14:42.230Z,5.95
2023-06-11T23:17:10.503Z,5.55
2023-06-11T23:19:38.875Z,5.45
2023-06-11T23:22:08.663Z,5.82
2023-06-11T23:24:40.792Z,5.25
2023-06-11T23:27:08.616Z,5.47
2023-06-11T23:29:36.005Z,5.25
2023-06-11T23:32:04.034Z,5.80
2023-06-11T23:34:31.944Z,5.00
2023-06-11T23:37:00.977Z,4.93
2023-06-11T23:39:28.890Z,4.75
2023-06-11T23:41:58.178Z,5.20
2023-06-11T23:44:24.938Z,5.10
2023-06-11T23:46:51.686Z,5.22
2023-06-11T23:49:19.584Z,5.03
2023-06-11T23:51:46.517Z,5.32
2023-06-11T23:54:14.910Z,5.05
2023-06-11T23:56:42.053Z,4.80
2023-06-11T23:59:08.978Z,5.30
